Time;durP1;ratioP1;P1;durP2;ratioP2;P2;SDS_P1;SDS_P2;PMS_P1;PMS_P2;Temp;Humidity;BMP_temperature;BMP_pressure;BME280_temperature;BME280_humidity;BME280_pressure;Samples;Min_cycle;Max_cycle;Signal;HPM_P1;HPM_P2
2022/11/22 00:00:18;;;;;;;51.30;31.27;;;2.30;99.90;;;;;;5010012;28;20136;-81
2022/11/22 00:02:46;;;;;;;53.50;30.58;;;2.40;99.90;;;;;;5000171;28;20060;-84
2022/11/22 00:05:12;;;;;;;51.05;30.48;;;2.30;99.90;;;;;;4997267;28;20129;-79
2022/11/22 00:07:39;;;;;;;48.90;29.30;;;2.30;99.90;;;;;;5006013;28;20137;-84
2022/11/22 00:10:08;;;;;;;51.22;30.25;;;2.30;99.90;;;;;;4996526;28;20137;-82
2022/11/22 00:12:35;;;;;;;41.80;25.02;;;2.30;99.90;;;;;;4989733;28;20129;-82
2022/11/22 00:15:03;;;;;;;42.75;25.67;;;2.40;99.90;;;;;;4990486;28;20050;-84
2022/11/22 00:17:33;;;;;;;34.72;20.65;;;2.40;99.90;;;;;;5008109;28;20038;-82
2022/11/22 00:20:00;;;;;;;44.17;24.05;;;2.40;99.90;;;;;;5002428;28;20535;-81
2022/11/22 00:22:27;;;;;;;34.03;23.02;;;2.50;99.90;;;;;;5003059;28;20038;-80
2022/11/22 00:24:53;;;;;;;40.50;23.15;;;2.60;99.90;;;;;;5011148;28;20033;-82
2022/11/22 00:27:20;;;;;;;33.60;22.90;;;2.60;99.90;;;;;;4985430;28;20127;-83
2022/11/22 00:29:47;;;;;;;34.50;22.45;;;2.70;99.90;;;;;;5001722;28;20048;-81
2022/11/22 00:32:14;;;;;;;33.85;23.92;;;2.70;99.90;;;;;;4994477;28;20038;-79
2022/11/22 00:34:40;;;;;;;34.67;23.33;;;2.70;99.90;;;;;;5005369;28;20157;-83
2022/11/22 00:37:07;;;;;;;35.10;24.50;;;2.70;99.90;;;;;;5020247;28;20543;-79
2022/11/22 00:39:34;;;;;;;35.58;23.60;;;2.70;99.90;;;;;;5000472;28;20220;-82
2022/11/22 00:42:00;;;;;;;31.52;23.05;;;2.70;99.90;;;;;;4997675;28;20035;-83
2022/11/22 00:44:27;;;;;;;41.40;24.20;;;2.70;99.90;;;;;;5013387;28;20125;-81
2022/11/22 00:46:54;;;;;;;31.02;21.13;;;2.70;99.90;;;;;;5015382;28;20045;-83
2022/11/22 00:49:21;;;;;;;30.65;20.77;;;2.70;99.90;;;;;;5016519;28;20396;-83
2022/11/22 00:51:47;;;;;;;30.23;23.58;;;2.80;99.90;;;;;;5005908;28;20512;-83
2022/11/22 00:54:14;;;;;;;32.63;21.33;;;2.80;99.90;;;;;;4999479;28;20053;-80
2022/11/22 00:56:41;;;;;;;33.38;22.63;;;2.70;99.90;;;;;;4999346;28;20044;-83
2022/11/22 00:59:07;;;;;;;33.38;24.42;;;2.70;99.90;;;;;;5011100;28;20379;-84
2022/11/22 01:01:34;;;;;;;36.33;23.95;;;2.70;99.90;;;;;;5000241;28;20045;-80
2022/11/22 01:04:01;;;;;;;27.50;23.40;;;2.70;99.90;;;;;;4999651;28;20593;-84
2022/11/22 01:06:27;;;;;;;33.05;23.98;;;2.70;99.90;;;;;;5000530;28;20359;-83
2022/11/22 01:08:54;;;;;;;34.63;24.77;;;2.70;99.90;;;;;;5002492;28;20631;-84
2022/11/22 01:11:21;;;;;;;36.53;27.05;;;2.60;99.90;;;;;;5016405;28;20030;-83
2022/11/22 01:13:47;;;;;;;36.22;26.92;;;2.60;99.90;;;;;;5001176;28;20052;-85
2022/11/22 01:16:15;;;;;;;39.50;27.38;;;2.60;99.90;;;;;;4998699;28;20053;-79
2022/11/22 01:18:42;;;;;;;42.58;27.67;;;2.50;99.90;;;;;;5000156;28;20044;-81
2022/11/22 01:21:09;;;;;;;38.75;28.90;;;2.50;99.90;;;;;;5018933;28;20038;-83
2022/11/22 01:23:36;;;;;;;39.28;26.33;;;2.50;99.90;;;;;;4980916;28;20047;-82
2022/11/22 01:26:07;;;;;;;39.75;27.50;;;2.60;99.90;;;;;;4994724;28;20099;-82
2022/11/22 01:28:35;;;;;;;37.15;27.65;;;2.50;99.90;;;;;;4992210;28;20164;-80
2022/11/22 01:31:02;;;;;;;44.53;29.40;;;2.50;99.90;;;;;;5002302;28;20045;-82
2022/11/22 01:33:29;;;;;;;41.83;28.02;;;2.50;99.90;;;;;;4972355;28;20069;-82
2022/11/22 01:35:57;;;;;;;40.30;25.88;;;2.60;99.90;;;;;;4991295;28;20091;-81
2022/11/22 01:38:24;;;;;;;41.38;27.63;;;2.50;99.90;;;;;;4998880;28;20038;-81
2022/11/22 01:40:51;;;;;;;39.65;27.17;;;2.50;99.90;;;;;;4996813;28;20041;-82
2022/11/22 01:43:21;;;;;;;36.22;27.08;;;2.50;99.90;;;;;;5001348;28;20053;-82
2022/11/22 01:45:51;;;;;;;36.95;25.98;;;2.50;99.90;;;;;;4998318;28;20053;-79
2022/11/22 01:48:21;;;;;;;42.20;26.30;;;2.60;99.90;;;;;;5015478;28;20073;-82
2022/11/22 01:50:52;;;;;;;37.33;26.17;;;2.60;99.90;;;;;;4998037;28;20045;-80
2022/11/22 01:53:24;;;;;;;36.28;26.73;;;2.70;99.90;;;;;;5015069;28;20100;-80
2022/11/22 01:55:52;;;;;;;40.90;26.13;;;2.60;99.90;;;;;;4979163;28;20086;-80
2022/11/22 01:58:21;;;;;;;42.40;26.15;;;2.60;99.90;;;;;;5004188;28;20030;-81
2022/11/22 02:00:50;;;;;;;30.08;21.83;;;2.60;99.90;;;;;;4999791;28;20041;-82
2022/11/22 02:03:18;;;;;;;41.25;26.30;;;2.60;99.90;;;;;;4999361;28;20045;-80
2022/11/22 02:05:46;;;;;;;35.67;25.80;;;2.60;99.90;;;;;;5010902;28;20042;-79
2022/11/22 02:08:29;;;;;;;31.63;24.08;;;2.60;99.90;;;;;;4997234;28;20110;-78
2022/11/22 02:11:00;;;;;;;29.98;23.30;;;2.70;99.90;;;;;;5001009;28;20041;-81
2022/11/22 02:13:28;;;;;;;29.45;22.25;;;2.70;99.90;;;;;;5007624;28;20084;-82
2022/11/22 02:15:55;;;;;;;25.98;17.80;;;2.70;99.90;;;;;;4992203;28;20052;-79
2022/11/22 02:18:22;;;;;;;32.42;23.10;;;2.70;99.90;;;;;;5002305;28;20066;-80
2022/11/22 02:20:49;;;;;;;31.52;24.48;;;2.80;99.90;;;;;;5001851;28;20041;-79
2022/11/22 02:23:22;;;;;;;36.17;22.85;;;2.80;99.90;;;;;;5020124;28;20041;-80
2022/11/22 02:25:54;;;;;;;32.38;22.23;;;2.80;99.90;;;;;;5017766;28;20144;-79
2022/11/22 02:28:21;;;;;;;30.17;22.67;;;2.80;99.90;;;;;;5007235;28;20495;-80
2022/11/22 02:30:48;;;;;;;35.22;22.92;;;2.80;99.90;;;;;;5015375;28;20049;-81
2022/11/22 02:33:15;;;;;;;29.88;22.60;;;2.70;99.90;;;;;;4999572;28;20049;-81
2022/11/22 02:35:43;;;;;;;34.00;22.65;;;2.70;99.90;;;;;;5006293;28;20053;-81
2022/11/22 02:38:18;;;;;;;27.77;23.20;;;2.80;99.90;;;;;;5006008;22;20057;-76
2022/11/22 02:40:57;;;;;;;33.00;23.92;;;2.80;99.90;;;;;;4987227;28;20128;-75
2022/11/22 02:43:31;;;;;;;32.08;23.10;;;2.80;99.90;;;;;;4973359;28;20042;-76
2022/11/22 02:46:06;;;;;;;32.28;23.08;;;2.90;99.90;;;;;;4978453;28;20050;-75
2022/11/22 02:48:33;;;;;;;;;;;2.90;99.90;;;;;;4997507;28;21295;-75
2022/11/22 02:51:00;;;;;;;28.15;21.17;;;2.90;99.90;;;;;;4991877;28;19925;-75
2022/11/22 02:53:29;;;;;;;31.80;22.40;;;2.90;99.90;;;;;;4992991;28;20582;-74
2022/11/22 02:55:56;;;;;;;36.88;23.17;;;3.00;99.90;;;;;;4998053;28;20043;-75
2022/11/22 02:58:23;;;;;;;28.60;20.60;;;3.00;99.90;;;;;;4993023;28;20045;-75
2022/11/22 03:00:49;;;;;;;35.10;24.33;;;3.00;99.90;;;;;;4977821;28;20132;-76
2022/11/22 03:03:16;;;;;;;29.17;22.65;;;3.00;99.90;;;;;;4982136;28;20943;-76
2022/11/22 03:05:43;;;;;;;32.88;23.33;;;3.00;99.90;;;;;;4983605;28;20073;-75
2022/11/22 03:08:10;;;;;;;29.48;21.50;;;3.10;99.90;;;;;;4994362;28;20707;-76
2022/11/22 03:10:37;;;;;;;32.90;23.27;;;3.10;99.90;;;;;;4991209;28;20072;-75
2022/11/22 03:13:03;;;;;;;31.42;24.25;;;3.10;99.90;;;;;;4987500;28;20057;-75
2022/11/22 03:15:30;;;;;;;36.78;25.15;;;3.10;99.90;;;;;;4989379;28;20185;-76
2022/11/22 03:18:01;;;;;;;30.92;24.10;;;3.20;99.90;;;;;;4983832;28;20045;-74
2022/11/22 03:20:29;;;;;;;29.80;23.00;;;3.10;99.90;;;;;;4993654;28;20129;-75
2022/11/22 03:22:55;;;;;;;33.25;23.42;;;3.20;99.90;;;;;;4974650;28;20040;-75
2022/11/22 03:25:22;;;;;;;31.00;22.58;;;3.10;99.90;;;;;;4975842;28;20116;-76
2022/11/22 03:27:49;;;;;;;27.90;22.48;;;3.10;99.90;;;;;;5000550;28;20056;-75
2022/11/22 03:30:16;;;;;;;34.15;23.23;;;3.10;99.90;;;;;;4984364;28;20050;-75
2022/11/22 03:32:43;;;;;;;30.27;21.33;;;3.20;99.90;;;;;;4968012;28;20137;-75
2022/11/22 03:35:09;;;;;;;33.65;23.27;;;3.10;99.90;;;;;;4966920;28;20034;-74
2022/11/22 03:37:36;;;;;;;30.05;21.95;;;3.20;99.90;;;;;;4942490;28;20042;-76
2022/11/22 03:40:04;;;;;;;30.98;23.10;;;3.20;99.90;;;;;;4956905;28;20300;-74
2022/11/22 03:42:31;;;;;;;29.92;23.08;;;3.20;99.90;;;;;;4955414;28;20045;-75
2022/11/22 03:44:58;;;;;;;28.98;20.75;;;3.20;99.90;;;;;;4966047;28;20053;-74
2022/11/22 03:47:24;;;;;;;28.55;24.17;;;3.20;99.90;;;;;;4971169;28;20038;-75
2022/11/22 03:49:51;;;;;;;32.33;22.83;;;3.20;99.90;;;;;;4992998;28;20056;-75
2022/11/22 03:52:18;;;;;;;32.65;21.20;;;3.30;99.90;;;;;;4992931;28;20041;-74
2022/11/22 03:54:44;;;;;;;33.17;24.92;;;3.20;99.90;;;;;;4980372;28;20076;-75
2022/11/22 03:57:11;;;;;;;36.47;24.02;;;3.30;99.90;;;;;;4977908;28;20039;-74
2022/11/22 03:59:38;;;;;;;29.85;23.65;;;3.30;99.90;;;;;;4974172;28;20295;-75
2022/11/22 04:02:04;;;;;;;31.60;24.50;;;3.40;99.90;;;;;;4979007;28;20069;-79
2022/11/22 04:04:31;;;;;;;36.35;24.98;;;3.30;99.90;;;;;;4992517;28;20117;-76
2022/11/22 04:06:58;;;;;;;37.08;24.15;;;3.30;99.90;;;;;;4987388;28;20052;-76
2022/11/22 04:09:25;;;;;;;36.17;25.95;;;3.40;99.90;;;;;;4962368;28;20048;-78
2022/11/22 04:11:52;;;;;;;35.22;25.73;;;3.30;99.90;;;;;;4994811;28;20042;-76
2022/11/22 04:17:03;;;;;;;35.78;24.95;;;3.30;99.90;;;;;;4980695;28;20430;-75
2022/11/22 04:19:30;;;;;;;30.25;22.33;;;3.30;99.90;;;;;;4992675;28;20054;-76
2022/11/22 04:21:57;;;;;;;31.33;22.83;;;3.30;99.90;;;;;;4978675;28;20038;-74
2022/11/22 04:27:09;;;;;;;35.22;23.52;;;3.40;99.90;;;;;;4976259;28;20108;-77
2022/11/22 04:29:36;;;;;;;33.63;23.02;;;3.40;99.90;;;;;;4960676;28;21072;-76
2022/11/22 04:34:48;;;;;;;34.55;22.60;;;3.50;99.90;;;;;;4979326;28;20038;-78
2022/11/22 04:37:15;;;;;;;32.95;21.80;;;3.40;99.90;;;;;;4998752;28;20105;-76
2022/11/22 04:39:42;;;;;;;34.38;23.58;;;3.50;99.90;;;;;;4964445;28;20047;-77
2022/11/22 04:44:55;;;;;;;33.83;21.60;;;3.50;99.90;;;;;;4971649;28;20048;-78
2022/11/22 04:52:58;;;;;;;;;;;3.60;99.90;;;;;;4976317;28;20062;-76
2022/11/22 04:55:25;;;;;;;27.92;21.83;;;3.60;99.90;;;;;;4975508;28;19921;-78
2022/11/22 04:57:51;;;;;;;22.63;19.45;;;3.60;99.90;;;;;;4981024;28;20042;-78
2022/11/22 05:00:27;;;;;;;26.40;19.50;;;3.60;99.90;;;;;;4982679;28;20045;-78
2022/11/22 05:02:54;;;;;;;25.02;20.10;;;3.60;99.90;;;;;;4995168;28;20050;-78
2022/11/22 05:05:22;;;;;;;25.60;19.60;;;3.60;99.90;;;;;;4972462;28;20049;-78
2022/11/22 05:07:49;;;;;;;24.95;21.15;;;3.60;99.90;;;;;;4979113;28;20077;-78
2022/11/22 05:10:15;;;;;;;28.70;21.40;;;3.70;99.90;;;;;;4993017;28;20099;-77
2022/11/22 05:12:50;;;;;;;24.30;21.30;;;3.60;99.90;;;;;;4966503;28;20116;-79
2022/11/22 05:15:17;;;;;;;27.17;22.67;;;3.60;99.90;;;;;;4976088;28;20140;-79
2022/11/22 05:17:44;;;;;;;32.78;23.45;;;3.60;99.90;;;;;;4975438;28;20053;-79
2022/11/22 05:20:11;;;;;;;26.15;21.95;;;3.50;99.90;;;;;;4973754;28;20430;-79
2022/11/22 05:25:22;;;;;;;27.48;22.90;;;3.60;99.90;;;;;;4989184;28;20042;-79
2022/11/22 05:27:54;;;;;;;30.00;24.17;;;3.70;99.90;;;;;;4998297;28;20308;-79
2022/11/22 05:30:21;;;;;;;31.58;23.40;;;3.70;99.90;;;;;;4953670;28;20042;-80
2022/11/22 05:32:48;;;;;;;30.20;23.90;;;3.70;99.90;;;;;;4957638;28;20419;-80
2022/11/22 05:35:15;;;;;;;30.33;24.45;;;3.80;99.90;;;;;;4959037;28;20406;-80
2022/11/22 05:37:41;;;;;;;36.33;25.38;;;3.80;99.90;;;;;;4975265;28;20034;-79
2022/11/22 05:40:09;;;;;;;33.08;24.45;;;3.70;99.90;;;;;;4989688;28;20045;-80
2022/11/22 05:42:36;;;;;;;39.45;25.90;;;3.80;99.90;;;;;;4990989;28;20054;-80
2022/11/22 05:45:03;;;;;;;39.63;26.88;;;3.70;99.90;;;;;;4989040;28;20112;-80
2022/11/22 05:47:33;;;;;;;35.63;26.95;;;3.70;99.90;;;;;;4988525;28;20931;-79
2022/11/22 05:50:00;;;;;;;35.55;26.15;;;3.80;99.90;;;;;;4991279;28;20336;-80
2022/11/22 05:52:27;;;;;;;30.08;25.30;;;3.80;99.90;;;;;;4986988;28;21075;-79
2022/11/22 05:54:54;;;;;;;33.20;27.27;;;3.80;99.90;;;;;;4997195;28;20050;-80
2022/11/22 05:57:21;;;;;;;43.75;29.50;;;3.70;99.90;;;;;;4973537;28;20521;-80
2022/11/22 05:59:47;;;;;;;35.75;25.95;;;3.90;99.90;;;;;;4991742;28;20121;-80
2022/11/22 06:02:14;;;;;;;44.28;27.48;;;3.90;99.90;;;;;;4992681;28;20060;-79
2022/11/22 06:04:41;;;;;;;29.63;26.38;;;3.90;99.90;;;;;;4967458;28;20041;-79
2022/11/22 06:07:08;;;;;;;33.55;26.50;;;3.80;99.90;;;;;;4993743;28;20045;-80
2022/11/22 06:09:36;;;;;;;29.85;24.88;;;3.70;99.90;;;;;;4975007;28;21553;-78
2022/11/22 06:12:03;;;;;;;45.17;31.90;;;3.60;99.90;;;;;;4989254;28;20034;-80
2022/11/22 06:14:30;;;;;;;40.42;28.92;;;3.60;99.90;;;;;;4970955;28;20429;-79
2022/11/22 06:16:57;;;;;;;36.63;29.83;;;3.50;99.90;;;;;;4976175;28;20404;-79
2022/11/22 06:19:23;;;;;;;49.03;31.20;;;3.50;99.90;;;;;;4972397;28;20050;-79
2022/11/22 06:21:50;;;;;;;60.30;38.50;;;3.40;99.90;;;;;;4993357;28;20129;-79
2022/11/22 06:24:17;;;;;;;55.85;39.63;;;3.40;99.90;;;;;;4974004;28;20250;-80
2022/11/22 06:26:44;;;;;;;51.15;36.17;;;3.40;99.90;;;;;;4986998;28;20041;-79
2022/11/22 06:29:10;;;;;;;53.35;36.97;;;3.30;99.90;;;;;;4977742;28;20065;-79
2022/11/22 06:31:37;;;;;;;50.83;35.45;;;3.30;99.90;;;;;;4987550;28;20054;-79
2022/11/22 06:34:04;;;;;;;53.88;34.03;;;3.30;99.90;;;;;;4995989;28;20057;-79
2022/11/22 06:36:33;;;;;;;49.05;32.45;;;3.30;99.90;;;;;;4965332;28;20056;-79
2022/11/22 06:39:02;;;;;;;50.47;32.65;;;3.30;99.90;;;;;;4962428;28;20073;-79
2022/11/22 06:41:34;;;;;;;55.63;34.38;;;3.30;99.90;;;;;;4969807;28;20035;-79
2022/11/22 06:44:05;;;;;;;58.47;35.53;;;3.30;99.90;;;;;;4994829;28;20053;-79
2022/11/22 06:46:32;;;;;;;60.40;36.33;;;3.30;99.90;;;;;;4991129;28;20129;-79
2022/11/22 06:48:59;;;;;;;59.88;38.05;;;3.40;99.90;;;;;;4979128;28;20101;-80
2022/11/22 06:51:30;;;;;;;62.25;37.22;;;3.40;99.90;;;;;;4972842;28;20042;-79
2022/11/22 06:53:57;;;;;;;57.20;33.88;;;3.40;99.90;;;;;;4994439;28;20057;-78
2022/11/22 06:56:29;;;;;;;63.55;37.25;;;3.40;99.90;;;;;;4977791;28;20092;-79
2022/11/22 06:58:59;;;;;;;54.85;33.35;;;3.40;99.90;;;;;;4974200;28;20038;-79
2022/11/22 07:01:28;;;;;;;65.10;34.72;;;3.40;99.90;;;;;;4981800;28;20038;-79
2022/11/22 07:03:56;;;;;;;59.25;35.05;;;3.40;99.90;;;;;;4995639;28;20080;-79
2022/11/22 07:06:29;;;;;;;57.95;34.22;;;3.40;99.90;;;;;;4982698;28;20089;-79
2022/11/22 07:08:57;;;;;;;63.28;35.63;;;3.40;99.90;;;;;;4976557;28;20128;-79
2022/11/22 07:11:27;;;;;;;71.20;37.40;;;3.30;99.90;;;;;;4985814;28;20054;-79
2022/11/22 07:13:55;;;;;;;72.13;38.30;;;3.40;99.90;;;;;;4981172;28;20049;-79
2022/11/22 07:16:28;;;;;;;;;;;3.40;99.90;;;;;;4971090;28;20050;-79
2022/11/22 07:18:58;;;;;;;67.35;37.47;;;3.20;99.90;;;;;;4982853;28;19928;-79
2022/11/22 07:21:25;;;;;;;68.72;35.58;;;3.40;99.90;;;;;;4972820;28;20728;-79
2022/11/22 07:23:53;;;;;;;71.38;40.35;;;3.50;99.90;;;;;;4989049;28;20046;-78
2022/11/22 07:26:22;;;;;;;71.60;41.03;;;3.50;99.90;;;;;;4964965;28;20129;-79
2022/11/22 07:28:49;;;;;;;65.60;39.67;;;3.40;99.90;;;;;;4999213;28;20145;-79
2022/11/22 07:31:16;;;;;;;68.22;40.05;;;3.50;99.90;;;;;;4975938;28;20239;-79
2022/11/22 07:33:43;;;;;;;76.57;49.35;;;3.50;99.90;;;;;;4981005;28;20061;-79
2022/11/22 07:36:16;;;;;;;67.07;39.88;;;3.60;99.90;;;;;;4981800;28;20063;-78
2022/11/22 07:38:44;;;;;;;76.20;47.47;;;3.60;99.90;;;;;;4977416;28;20494;-79
2022/11/22 07:41:12;;;;;;;80.15;46.03;;;3.70;99.90;;;;;;4990128;28;20052;-78
2022/11/22 07:43:39;;;;;;;61.90;36.45;;;3.60;99.90;;;;;;4974249;28;21430;-79
2022/11/22 07:46:15;;;;;;;55.97;38.58;;;3.60;99.90;;;;;;4977974;28;20261;-78
2022/11/22 07:48:42;;;;;;;65.15;39.45;;;3.70;99.90;;;;;;4979760;28;20137;-78
2022/11/22 07:51:09;;;;;;;69.88;44.45;;;3.70;99.90;;;;;;4988860;28;20053;-79
2022/11/22 07:53:35;;;;;;;55.92;37.63;;;3.80;99.90;;;;;;4957974;28;20080;-79
2022/11/22 07:56:03;;;;;;;54.75;39.75;;;3.80;99.90;;;;;;4973484;23;20069;-73
2022/11/22 07:58:31;;;;;;;59.55;38.00;;;3.80;99.90;;;;;;4972800;28;20042;-75
2022/11/22 08:01:10;;;;;;;58.53;41.15;;;3.90;99.90;;;;;;4971681;28;20077;-75
2022/11/22 08:03:37;;;;;;;58.20;35.17;;;3.90;99.90;;;;;;4977153;28;20264;-75
2022/11/22 08:06:06;;;;;;;49.25;34.70;;;3.90;99.90;;;;;;4976731;28;20363;-75
2022/11/22 08:08:34;;;;;;;51.15;34.15;;;4.00;99.90;;;;;;4973926;28;20129;-74
2022/11/22 08:11:02;;;;;;;53.78;32.97;;;4.00;99.90;;;;;;4975586;28;20045;-74
2022/11/22 08:13:30;;;;;;;48.00;33.83;;;4.00;99.90;;;;;;4967315;28;20047;-75
2022/11/22 08:16:02;;;;;;;52.30;37.60;;;4.00;99.90;;;;;;4959447;28;20041;-74
2022/11/22 08:18:31;;;;;;;;;;;4.10;99.90;;;;;;4972256;28;20100;-75
2022/11/22 08:21:24;;;;;;;46.67;34.42;;;4.10;99.90;;;;;;4977831;28;20024;-74
2022/11/22 08:23:57;;;;;;;53.83;37.25;;;4.20;99.90;;;;;;4971468;28;20073;-78
2022/11/22 08:26:23;;;;;;;45.03;35.13;;;4.30;99.90;;;;;;4971943;28;20339;-80
2022/11/22 08:28:50;;;;;;;43.65;34.22;;;4.30;99.90;;;;;;4976985;28;20053;-81
2022/11/22 08:31:18;;;;;;;45.90;36.22;;;4.40;99.90;;;;;;4977678;28;20046;-79
2022/11/22 08:33:46;;;;;;;45.05;36.78;;;4.60;99.90;;;;;;4960372;28;20283;-78
2022/11/22 08:36:13;;;;;;;52.45;40.22;;;4.70;99.90;;;;;;4947192;28;20042;-79
2022/11/22 08:38:40;;;;;;;40.08;34.70;;;4.90;99.90;;;;;;4963102;28;20440;-79
2022/11/22 08:41:07;;;;;;;38.63;34.20;;;5.00;99.90;;;;;;4982540;28;20089;-76
2022/11/22 08:43:34;;;;;;;39.90;36.03;;;5.10;99.90;;;;;;4948974;28;20370;-77
2022/11/22 08:46:01;;;;;;;40.88;37.00;;;5.20;99.90;;;;;;4959749;28;20043;-77
2022/11/22 08:48:29;;;;;;;40.40;36.70;;;5.30;99.90;;;;;;4959647;28;20041;-78
2022/11/22 08:50:58;;;;;;;38.60;35.08;;;5.50;99.90;;;;;;4977884;28;20421;-77
2022/11/22 08:53:25;;;;;;;38.35;35.03;;;5.60;99.90;;;;;;4957853;28;20038;-78
2022/11/22 08:55:53;;;;;;;42.15;38.53;;;5.80;99.90;;;;;;4980082;28;20038;-77
2022/11/22 08:58:21;;;;;;;44.60;41.10;;;5.90;99.90;;;;;;4977655;28;20054;-77
2022/11/22 09:00:47;;;;;;;47.65;44.33;;;6.10;99.90;;;;;;4962360;28;20451;-77
2022/11/22 09:03:14;;;;;;;45.35;41.80;;;6.40;99.90;;;;;;4976471;28;20050;-78
2022/11/22 09:05:41;;;;;;;44.15;40.95;;;6.50;99.90;;;;;;4959088;28;20050;-76
2022/11/22 09:08:28;;;;;;;45.25;42.05;;;6.60;99.90;;;;;;4960859;28;20400;-77
2022/11/22 09:11:06;;;;;;;43.28;39.90;;;6.60;99.90;;;;;;4966768;28;20066;-76
2022/11/22 09:13:34;;;;;;;40.00;37.53;;;6.60;99.90;;;;;;4975342;28;20054;-77
2022/11/22 09:16:02;;;;;;;41.75;38.92;;;6.50;99.90;;;;;;4998137;28;20097;-78
2022/11/22 09:18:29;;;;;;;35.03;32.40;;;6.50;99.90;;;;;;4993198;28;20173;-78
2022/11/22 09:21:00;;;;;;;35.03;32.08;;;6.50;99.90;;;;;;4990021;28;20164;-77
2022/11/22 09:23:27;;;;;;;38.80;36.28;;;6.30;99.90;;;;;;4980663;28;20207;-75
2022/11/22 09:26:03;;;;;;;39.30;36.22;;;6.30;99.90;;;;;;4978177;28;20038;-75
2022/11/22 09:28:30;;;;;;;38.00;35.22;;;6.30;99.90;;;;;;4973052;28;20042;-75
2022/11/22 09:31:02;;;;;;;35.22;32.58;;;6.40;99.90;;;;;;4958463;28;20042;-75
2022/11/22 09:33:30;;;;;;;40.10;36.92;;;6.40;99.90;;;;;;4955460;28;20057;-74
2022/11/22 09:36:01;;;;;;;47.40;43.67;;;6.60;99.90;;;;;;4978214;28;20667;-74
2022/11/22 09:38:29;;;;;;;42.78;39.20;;;6.60;99.90;;;;;;4955107;28;20399;-75
2022/11/22 09:40:58;;;;;;;40.00;37.35;;;6.60;99.90;;;;;;4958417;28;20035;-74
2022/11/22 09:43:42;;;;;;;40.20;36.85;;;6.60;99.90;;;;;;4971727;28;20212;-75
2022/11/22 09:46:27;;;;;;;39.95;37.28;;;6.50;99.90;;;;;;4957412;28;20046;-74
2022/11/22 09:49:13;;;;;;;36.92;34.50;;;6.50;99.90;;;;;;4951133;28;20142;-74
2022/11/22 09:51:52;;;;;;;38.80;35.75;;;6.50;99.90;;;;;;4956138;28;20039;-75
2022/11/22 09:54:48;;;;;;;38.25;35.33;;;6.50;99.90;;;;;;4977708;28;20438;-74
2022/11/22 09:57:20;;;;;;;;;;;6.40;99.90;;;;;;4966892;28;20084;-75
2022/11/22 09:59:53;;;;;;;37.55;34.65;;;6.40;99.90;;;;;;4986017;28;19922;-75
2022/11/22 10:02:28;;;;;;;35.67;32.75;;;6.40;99.90;;;;;;4973001;28;20057;-75
2022/11/22 10:04:56;;;;;;;;;;;6.30;99.90;;;;;;4959648;28;20137;-75
2022/11/22 10:07:29;;;;;;;35.50;32.78;;;6.30;99.90;;;;;;4961024;28;19930;-76
2022/11/22 10:10:16;;;;;;;34.65;31.95;;;6.40;99.90;;;;;;4974012;28;20050;-76
2022/11/22 10:13:00;;;;;;;35.45;32.53;;;6.50;99.90;;;;;;4969863;28;20043;-76
2022/11/22 10:15:43;;;;;;;33.13;30.55;;;6.50;99.90;;;;;;4972467;28;20098;-79
2022/11/22 10:18:38;;;;;;;33.20;30.52;;;6.50;99.90;;;;;;4983553;28;20060;-77
2022/11/22 10:21:10;;;;;;;36.67;33.88;;;6.60;99.90;;;;;;4939094;28;20051;-78
2022/11/22 10:23:39;;;;;;;37.58;34.42;;;6.70;99.90;;;;;;4960303;28;20806;-79
2022/11/22 10:26:35;;;;;;;42.78;39.67;;;6.80;99.90;;;;;;4963750;28;20065;-79
2022/11/22 10:29:02;;;;;;;;;;;6.70;99.90;;;;;;4955374;28;20074;-79
2022/11/22 10:31:38;;;;;;;38.50;35.53;;;6.70;99.90;;;;;;4956486;28;20375;-78
2022/11/22 10:34:14;;;;;;;39.47;35.85;;;6.80;99.90;;;;;;4974925;28;20093;-79
2022/11/22 10:36:59;;;;;;;38.00;34.55;;;6.90;99.90;;;;;;4979462;28;20037;-78
2022/11/22 10:39:54;;;;;;;38.50;35.45;;;6.90;99.90;;;;;;4959768;28;20065;-78
2022/11/22 10:42:32;;;;;;;35.45;32.65;;;6.80;99.90;;;;;;4942660;28;20145;-80
2022/11/22 10:45:18;;;;;;;34.78;32.17;;;6.80;99.90;;;;;;4960571;28;20077;-78
2022/11/22 10:48:26;;;;;;;33.40;31.15;;;6.90;99.90;;;;;;4955704;28;20505;-77
2022/11/22 10:50:59;;;;;;;38.08;34.97;;;7.00;99.90;;;;;;4959785;28;20386;-76
2022/11/22 10:54:07;;;;;;;36.00;32.60;;;6.90;99.90;;;;;;4943291;28;20420;-76
2022/11/22 10:57:07;;;;;;;35.22;32.50;;;6.80;99.90;;;;;;4958017;28;20065;-77
2022/11/22 11:00:17;;;;;;;38.15;35.58;;;6.90;99.90;;;;;;4982044;28;20217;-77
2022/11/22 11:03:04;;;;;;;29.20;26.50;;;6.90;99.90;;;;;;4884535;29;20112;-78
2022/11/22 11:05:51;;;;;;;39.45;36.58;;;7.00;99.90;;;;;;4972840;28;20053;-77
2022/11/22 11:08:44;;;;;;;41.15;38.08;;;7.10;99.90;;;;;;4949754;28;20420;-77
2022/11/22 11:11:31;;;;;;;37.58;34.67;;;7.20;99.90;;;;;;4961736;28;20444;-78
2022/11/22 11:14:15;;;;;;;38.90;35.83;;;7.10;99.90;;;;;;4979332;28;20050;-78
2022/11/22 11:16:43;;;;;;;37.75;34.97;;;7.20;99.90;;;;;;4970910;28;20250;-79
2022/11/22 11:19:10;;;;;;;34.72;31.58;;;7.20;99.90;;;;;;4984684;28;20042;-78
2022/11/22 11:21:37;;;;;;;32.17;29.77;;;7.20;99.90;;;;;;5002784;28;20169;-80
2022/11/22 11:24:12;;;;;;;36.03;33.53;;;7.30;99.90;;;;;;5007436;28;20081;-79
2022/11/22 11:26:40;;;;;;;35.00;32.20;;;7.20;99.90;;;;;;5003681;28;20065;-78
2022/11/22 11:29:27;;;;;;;44.13;40.22;;;7.20;99.90;;;;;;5003026;28;20050;-78
2022/11/22 11:32:08;;;;;;;40.75;37.22;;;7.10;99.90;;;;;;4969574;28;20555;-77
2022/11/22 11:34:36;;;;;;;34.33;31.90;;;7.10;99.90;;;;;;4974970;28;20050;-77
2022/11/22 11:37:04;;;;;;;36.67;33.72;;;7.10;99.90;;;;;;4982158;28;20042;-77
2022/11/22 11:39:33;;;;;;;35.65;32.60;;;7.20;99.90;;;;;;4962159;28;20052;-76
2022/11/22 11:42:19;;;;;;;38.05;34.53;;;7.20;99.90;;;;;;4980092;28;20117;-76
2022/11/22 11:44:46;;;;;;;36.10;33.35;;;7.30;99.90;;;;;;4983138;28;20041;-76
2022/11/22 11:47:33;;;;;;;35.13;32.20;;;7.40;99.90;;;;;;4962864;28;20047;-75
2022/11/22 11:50:00;;;;;;;38.35;35.60;;;7.40;99.90;;;;;;4974153;28;20280;-76
2022/11/22 11:52:28;;;;;;;38.60;35.58;;;7.50;99.90;;;;;;4982472;28;20194;-76
2022/11/22 11:55:00;;;;;;;29.45;27.25;;;7.50;99.90;;;;;;4968231;28;20052;-75
2022/11/22 11:57:30;;;;;;;32.00;29.35;;;7.50;99.90;;;;;;4960823;28;20253;-75
2022/11/22 12:00:01;;;;;;;32.92;30.45;;;7.40;99.90;;;;;;4978535;28;20043;-74
2022/11/22 12:02:40;;;;;;;32.28;30.10;;;7.40;99.90;;;;;;4971336;28;20130;-74
2022/11/22 12:05:13;;;;;;;34.88;32.30;;;7.40;99.90;;;;;;4976493;28;20051;-74
2022/11/22 12:07:45;;;;;;;32.20;30.20;;;7.40;99.90;;;;;;4950265;28;20042;-75
2022/11/22 12:10:39;;;;;;;33.22;30.48;;;7.50;99.90;;;;;;4961418;28;20109;-75
2022/11/22 12:13:16;;;;;;;35.80;32.97;;;7.60;99.90;;;;;;4973528;28;20138;-75
2022/11/22 12:15:50;;;;;;;33.15;30.67;;;7.70;99.90;;;;;;4958254;28;20066;-74
2022/11/22 12:18:47;;;;;;;34.03;31.27;;;7.50;99.90;;;;;;4959898;28;20453;-75
2022/11/22 12:21:37;;;;;;;;;;;7.40;99.90;;;;;;4962034;28;20087;-76
2022/11/22 12:24:16;;;;;;;32.50;30.23;;;7.40;99.90;;;;;;4959905;28;19921;-75
2022/11/22 12:27:02;;;;;;;31.60;29.52;;;7.50;99.90;;;;;;4964819;28;20047;-75
2022/11/22 12:29:34;;;;;;;33.47;31.25;;;7.50;99.90;;;;;;4972664;28;20077;-75
2022/11/22 12:32:18;;;;;;;31.45;29.48;;;7.40;99.90;;;;;;4976200;28;20659;-75
2022/11/22 12:35:00;;;;;;;32.95;30.92;;;7.40;99.90;;;;;;4984441;28;20077;-75
2022/11/22 12:37:33;;;;;;;30.02;28.08;;;7.40;99.90;;;;;;4973609;28;20077;-75
2022/11/22 12:40:12;;;;;;;31.65;29.77;;;7.20;99.90;;;;;;4953471;28;20050;-75
2022/11/22 12:42:46;;;;;;;33.30;31.02;;;7.20;99.90;;;;;;4973359;28;20042;-75
2022/11/22 12:45:21;;;;;;;32.90;30.80;;;7.10;99.90;;;;;;4980594;28;20050;-75
2022/11/22 12:47:49;;;;;;;34.90;32.13;;;7.00;99.90;;;;;;4961727;28;20057;-75
2022/11/22 12:50:23;;;;;;;34.65;32.25;;;7.00;99.90;;;;;;4974596;28;20056;-75
2022/11/22 12:52:59;;;;;;;36.22;33.53;;;7.00;99.90;;;;;;4973875;28;20072;-75
2022/11/22 12:55:30;;;;;;;33.85;31.48;;;7.00;99.90;;;;;;4956143;28;20142;-76
2022/11/22 12:58:17;;;;;;;34.03;31.75;;;6.90;99.90;;;;;;4966124;28;20049;-76
2022/11/22 13:01:12;;;;;;;31.02;28.30;;;7.10;99.90;;;;;;4973846;28;20058;-76
2022/11/22 13:03:54;;;;;;;31.33;29.27;;;7.10;99.90;;;;;;4978297;28;20521;-76
2022/11/22 13:06:23;;;;;;;32.08;30.05;;;7.00;99.90;;;;;;4964203;28;20559;-75
2022/11/22 13:08:58;;;;;;;30.25;28.42;;;7.00;99.90;;;;;;4978032;28;20042;-77
2022/11/22 13:11:43;;;;;;;31.98;29.95;;;7.10;99.90;;;;;;4957798;28;20042;-77
2022/11/22 13:14:14;;;;;;;30.52;28.48;;;7.00;99.90;;;;;;4966502;28;20054;-76
2022/11/22 13:16:49;;;;;;;31.50;28.83;;;7.00;99.90;;;;;;4971866;28;20053;-77
2022/11/22 13:19:18;;;;;;;32.90;30.23;;;6.90;99.90;;;;;;4958262;28;20065;-76